This is the latest recevied weather packets stored in our database for station/object KG5VSR. If no packets are shown the sender has not sent any weather packets the latest 10 day(s).
| Time | Temp. | Humidity | Pressure | Rain* | Wind** | Luminosity | Snow |
|---|---|---|---|---|---|---|---|
| 1777779967 | 16.67° C | 66% | 1020.5 hPa | 0 mm | - | 0 W/m² | - |
| 1777778164 | 16.67° C | 66% | 1020.2 hPa | 0 mm | - | 0 W/m² | - |
| 1777776362 | 16.67° C | 63% | 1020.2 hPa | 0 mm | - | 0 W/m² | - |
| 1777774560 | 17.78° C | 63% | 1019.6 hPa | 0 mm | - | 0 W/m² | - |
| 1777772757 | 18.89° C | 59% | 1019.4 hPa | 0 mm | - | 0 W/m² | - |
| 1777770958 | 20.56° C | 53% | 1019.3 hPa | 0 mm | - | 0 W/m² | - |
| 1777769156 | 23.33° C | 46% | 1019.2 hPa | 0 mm | - | 14 W/m² | - |
| 1777767355 | 24.44° C | 39% | 1019 hPa | 0 mm | - | 33 W/m² | - |
| 1777765553 | 25.56° C | 38% | 1019.1 hPa | 0 mm | - | 106 W/m² | - |
| 1777763750 | 25° C | 36% | 1019.1 hPa | 0 mm | - | 189 W/m² | - |
| 1777761945 | 25.56° C | 36% | 1019.5 hPa | 0 mm | - | 291 W/m² | - |
| 1777760144 | 25° C | 35% | 1019.5 hPa | 0 mm | - | 379 W/m² | - |
| 1777758343 | 25.56° C | 38% | 1019.8 hPa | 0 mm | - | 477 W/m² | - |
| 1777756538 | 25.56° C | 37% | 1019.9 hPa | 0 mm | - | 610 W/m² | - |
| 1777754738 | 25.56° C | 35% | 1020.3 hPa | 0 mm | - | 636 W/m² | - |
| 1777752937 | 25.56° C | 36% | 1020.6 hPa | 0 mm | - | 677 W/m² | - |
| 1777751136 | 25° C | 37% | 1021.1 hPa | 0 mm | - | 725 W/m² | - |
| 1777749334 | 25° C | 34% | 1021.4 hPa | 0 mm | - | 725 W/m² | - |
| 1777747531 | 25° C | 37% | 1021.7 hPa | 0 mm | - | 750 W/m² | - |
| 1777745727 | 25° C | 37% | 1022.1 hPa | 0 mm | - | 796 W/m² | - |
| 1777743925 | 23.33° C | 40% | 1022.4 hPa | 0 mm | - | 793 W/m² | - |
| 1777742123 | 23.89° C | 41% | 1022.9 hPa | 0 mm | - | 801 W/m² | - |
| 1777740321 | 22.22° C | 39% | 1023.1 hPa | 0 mm | - | 819 W/m² | - |
| 1777738517 | 21.67° C | 44% | 1023.1 hPa | 0 mm | - | 855 W/m² | - |
| 1777736716 | 21.11° C | 45% | 1022.7 hPa | 0 mm | - | 769 W/m² | - |
* Rain latest hour (hover to see other rain measurements)
** Current wind speed in m/s (hover to see current wind gust speed)